Time;durP1;ratioP1;P1;durP2;ratioP2;P2;SDS_P1;SDS_P2;PMS_P1;PMS_P2;Temp;Humidity;BMP_temperature;BMP_pressure;BME280_temperature;BME280_humidity;BME280_pressure;Samples;Min_cycle;Max_cycle;Signal;HPM_P1;HPM_P2
2022/11/20 00:01:44;;;;;;;;;;;;;;;;;;5025545;28;19917;-57
2022/11/20 00:04:09;;;;;;;;;;;;;;;;;;5026252;28;20446;-55
2022/11/20 00:06:34;;;;;;;;;;;;;;;;;;5027525;28;20340;-57
2022/11/20 00:08:59;;;;;;;;;;;;;;;;;;5026168;28;19919;-57
2022/11/20 00:11:25;;;;;;;;;;;;;;;;;;5028191;28;19917;-58
2022/11/20 00:13:50;;;;;;;;;;;;;;;;;;5029382;28;19920;-57
2022/11/20 00:16:15;;;;;;;;;;;;;;;;;;5028292;28;19992;-57
2022/11/20 00:18:42;;;;;;;;;;;;;;;;;;5026057;28;20304;-57
2022/11/20 00:21:07;;;;;;;;;;;;;;;;;;5025627;28;19917;-57
2022/11/20 00:23:32;;;;;;;;;;;;;;;;;;5029661;28;19917;-58
2022/11/20 00:25:57;;;;;;;;;;;;;;;;;;5025134;28;19917;-55
2022/11/20 00:28:22;;;;;;;;;;;;;;;;;;5039590;28;19921;-57
2022/11/20 00:30:48;;;;;;;;;;;;;;;;;;5025958;28;20334;-57
2022/11/20 00:33:13;;;;;;;;;;;;;;;;;;5024538;28;19917;-57
2022/11/20 00:35:38;;;;;;;;;;;;;;;;;;5022492;28;19921;-57
2022/11/20 00:38:03;;;;;;;;;;;;;;;;;;5027046;28;20285;-57
2022/11/20 00:40:28;;;;;;;;;;;;;;;;;;5025294;28;20003;-57
2022/11/20 00:42:54;;;;;;;;;;;;;;;;;;5025832;28;19913;-57
2022/11/20 00:45:19;;;;;;;;;;;;;;;;;;5023835;28;20016;-57
2022/11/20 00:47:44;;;;;;;;;;;;;;;;;;5025910;28;19939;-58
2022/11/20 00:50:09;;;;;;;;;;;;;;;;;;5026082;28;19917;-56
2022/11/20 00:52:34;;;;;;;;;;;;;;;;;;5026604;28;19923;-58
2022/11/20 00:55:00;;;;;;;;;;;;;;;;;;5024426;28;20077;-57
2022/11/20 00:57:25;;;;;;;;;;;;;;;;;;5026042;28;19971;-57
2022/11/20 00:59:50;;;;;;;;;;;;;;;;;;5025488;28;19960;-58
2022/11/20 01:02:16;;;;;;;;;;;;;;;;;;5019501;28;19931;-58
2022/11/20 01:04:41;;;;;;;;;;;;;;;;;;5024951;28;20693;-57
2022/11/20 01:07:06;;;;;;;;;;;;;;;;;;5023548;28;19917;-58
2022/11/20 01:09:31;;;;;;;;;;;;;;;;;;5024018;28;20004;-58
2022/11/20 01:11:57;;;;;;;;;;;;;;;;;;5022951;28;19913;-57
2022/11/20 01:14:22;;;;;;;;;;;;;;;;;;5024870;28;19920;-57
2022/11/20 01:16:48;;;;;;;;;;;;;;;;;;5024873;28;19917;-56
2022/11/20 01:19:13;;;;;;;;;;;;;;;;;;5025310;28;19921;-56
2022/11/20 01:21:38;;;;;;;;;;;;;;;;;;5025075;28;19917;-57
2022/11/20 01:24:03;;;;;;;;;;;;;;;;;;5025375;28;20012;-58
2022/11/20 01:26:28;;;;;;;;;;;;;;;;;;5027339;28;19918;-57
2022/11/20 01:28:54;;;;;;;;;;;;;;;;;;5028673;28;19917;-56
2022/11/20 01:31:19;;;;;;;;;;;;;;;;;;5029655;28;20427;-56
2022/11/20 01:33:44;;;;;;;;;;;;;;;;;;5029518;28;19924;-58
2022/11/20 01:36:09;;;;;;;;;;;;;;;;;;5026407;28;19926;-58
2022/11/20 01:38:34;;;;;;;;;;;;;;;;;;5027578;28;20365;-58
2022/11/20 01:41:00;;;;;;;;;;;;;;;;;;5028377;28;19922;-58
2022/11/20 01:43:25;;;;;;;;;;;;;;;;;;5029016;28;19924;-58
2022/11/20 01:45:50;;;;;;;;;;;;;;;;;;5030048;28;19917;-58
2022/11/20 01:48:15;;;;;;;;;;;;;;;;;;5029573;28;19917;-57
2022/11/20 01:50:41;;;;;;;;;;;;;;;;;;5027850;28;20003;-58
2022/11/20 01:53:06;;;;;;;;;;;;;;;;;;5029578;28;20353;-55
2022/11/20 01:55:31;;;;;;;;;;;;;;;;;;5027750;28;19931;-58
2022/11/20 01:57:56;;;;;;;;;;;;;;;;;;5030442;28;19964;-58
2022/11/20 02:00:21;;;;;;;;;;;;;;;;;;5027574;28;19947;-57
2022/11/20 02:02:46;;;;;;;;;;;;;;;;;;5026416;28;19963;-58
2022/11/20 02:05:12;;;;;;;;;;;;;;;;;;5028826;28;19917;-58
2022/11/20 02:07:37;;;;;;;;;;;;;;;;;;5027810;28;20297;-58
2022/11/20 02:10:02;;;;;;;;;;;;;;;;;;5029104;28;20008;-57
2022/11/20 02:15:11;;;;;;;;;;;;;;;;;;5029467;28;19928;-57
2022/11/20 02:17:36;;;;;;;;;;;;;;;;;;5028304;28;19913;-58
2022/11/20 02:20:01;;;;;;;;;;;;;;;;;;5031534;28;19925;-57
2022/11/20 02:22:26;;;;;;;;;;;;;;;;;;5027636;28;19963;-58
2022/11/20 02:24:51;;;;;;;;;;;;;;;;;;5028952;28;19928;-57
2022/11/20 02:27:17;;;;;;;;;;;;;;;;;;5028252;28;19917;-57
2022/11/20 02:29:42;;;;;;;;;;;;;;;;;;5025842;28;19924;-57
2022/11/20 02:32:07;;;;;;;;;;;;;;;;;;5027092;28;20008;-58
2022/11/20 02:34:32;;;;;;;;;;;;;;;;;;5027494;28;19919;-57
2022/11/20 02:36:58;;;;;;;;;;;;;;;;;;5029575;28;19924;-58
2022/11/20 02:39:23;;;;;;;;;;;;;;;;;;5028993;28;19995;-57
2022/11/20 02:41:48;;;;;;;;;;;;;;;;;;5028741;28;20297;-57
2022/11/20 02:44:13;;;;;;;;;;;;;;;;;;5028024;28;19916;-57
2022/11/20 02:46:38;;;;;;;;;;;;;;;;;;5027548;28;20063;-57
2022/11/20 02:49:03;;;;;;;;;;;;;;;;;;5027880;28;20715;-57
2022/11/20 02:51:29;;;;;;;;;;;;;;;;;;5027547;28;19928;-57
2022/11/20 02:53:54;;;;;;;;;;;;;;;;;;5029393;28;19943;-57
2022/11/20 02:56:19;;;;;;;;;;;;;;;;;;5025941;28;20685;-58
2022/11/20 02:58:44;;;;;;;;;;;;;;;;;;5029550;28;19944;-57
2022/11/20 03:01:09;;;;;;;;;;;;;;;;;;5027939;28;19917;-58
2022/11/20 03:03:35;;;;;;;;;;;;;;;;;;5027607;28;19924;-57
2022/11/20 03:06:00;;;;;;;;;;;;;;;;;;5027552;28;19917;-58
2022/11/20 03:08:25;;;;;;;;;;;;;;;;;;5029128;28;20358;-58
2022/11/20 03:10:50;;;;;;;;;;;;;;;;;;5029140;28;20008;-58
2022/11/20 03:13:15;;;;;;;;;;;;;;;;;;5028071;28;19917;-58
2022/11/20 03:15:41;;;;;;;;;;;;;;;;;;5026470;28;20620;-54
2022/11/20 03:18:06;;;;;;;;;;;;;;;;;;5026797;28;19988;-58
2022/11/20 03:20:31;;;;;;;;;;;;;;;;;;5027025;28;19925;-58
2022/11/20 03:22:56;;;;;;;;;;;;;;;;;;5027925;28;19917;-59
2022/11/20 03:25:22;;;;;;;;;;;;;;;;;;5030162;28;20241;-58
2022/11/20 03:27:47;;;;;;;;;;;;;;;;;;5027999;28;19972;-58
2022/11/20 03:30:12;;;;;;;;;;;;;;;;;;5027910;28;19975;-58
2022/11/20 03:32:37;;;;;;;;;;;;;;;;;;5030281;28;19917;-58
2022/11/20 03:35:02;;;;;;;;;;;;;;;;;;5030783;28;19917;-58
2022/11/20 03:37:28;;;;;;;;;;;;;;;;;;5027669;28;20438;-57
2022/11/20 03:39:53;;;;;;;;;;;;;;;;;;5027744;28;19932;-58
2022/11/20 03:45:02;;;;;;;;;;;;;;;;;;5027520;28;20790;-58
2022/11/20 03:47:28;;;;;;;;;;;;;;;;;;5027239;28;20396;-58
2022/11/20 03:49:53;;;;;;;;;;;;;;;;;;5023571;28;19916;-57
2022/11/20 03:52:18;;;;;;;;;;;;;;;;;;5028352;28;20654;-58
2022/11/20 03:54:44;;;;;;;;;;;;;;;;;;5032707;28;19917;-57
2022/11/20 03:57:09;;;;;;;;;;;;;;;;;;5023250;28;19970;-58
2022/11/20 03:59:34;;;;;;;;;;;;;;;;;;5027755;28;20012;-58
2022/11/20 04:01:59;;;;;;;;;;;;;;;;;;5026477;28;19925;-59
2022/11/20 04:04:24;;;;;;;;;;;;;;;;;;5026201;28;19917;-59
2022/11/20 04:06:49;;;;;;;;;;;;;;;;;;5030257;28;19975;-58
2022/11/20 04:09:15;;;;;;;;;;;;;;;;;;5026712;28;20008;-59
2022/11/20 04:11:40;;;;;;;;;;;;;;;;;;5026311;28;20290;-58
2022/11/20 04:14:05;;;;;;;;;;;;;;;;;;5024897;28;19921;-59
2022/11/20 04:16:31;;;;;;;;;;;;;;;;;;5026539;28;20007;-59
2022/11/20 04:18:56;;;;;;;;;;;;;;;;;;5025792;28;19925;-59
2022/11/20 04:21:21;;;;;;;;;;;;;;;;;;5030123;28;20753;-59
2022/11/20 04:23:46;;;;;;;;;;;;;;;;;;5026440;28;20424;-59
2022/11/20 04:26:11;;;;;;;;;;;;;;;;;;5025240;28;19967;-59
2022/11/20 04:28:37;;;;;;;;;;;;;;;;;;5033338;28;19967;-59
2022/11/20 04:31:02;;;;;;;;;;;;;;;;;;5025693;28;19927;-58
2022/11/20 04:33:27;;;;;;;;;;;;;;;;;;5027021;28;20011;-60
2022/11/20 04:35:52;;;;;;;;;;;;;;;;;;5028202;28;19939;-58
2022/11/20 04:38:17;;;;;;;;;;;;;;;;;;5023406;28;20642;-59
2022/11/20 04:40:43;;;;;;;;;;;;;;;;;;5026894;28;19925;-59
2022/11/20 04:43:08;;;;;;;;;;;;;;;;;;5025437;28;19999;-59
2022/11/20 04:45:33;;;;;;;;;;;;;;;;;;5026409;28;20316;-59
2022/11/20 04:47:58;;;;;;;;;;;;;;;;;;5024299;28;20005;-58
2022/11/20 04:50:23;;;;;;;;;;;;;;;;;;5027309;28;19942;-58
2022/11/20 04:52:48;;;;;;;;;;;;;;;;;;5027613;28;20043;-57
2022/11/20 04:55:14;;;;;;;;;;;;;;;;;;5024586;28;19917;-59
2022/11/20 04:57:39;;;;;;;;;;;;;;;;;;5031002;28;19921;-58
2022/11/20 05:00:04;;;;;;;;;;;;;;;;;;5024747;28;19932;-58
2022/11/20 05:02:29;;;;;;;;;;;;;;;;;;5027303;28;20374;-59
2022/11/20 05:04:54;;;;;;;;;;;;;;;;;;5024039;28;19917;-58
2022/11/20 05:07:19;;;;;;;;;;;;;;;;;;5025829;28;20102;-58
2022/11/20 05:09:45;;;;;;;;;;;;;;;;;;5029035;28;20408;-58
2022/11/20 05:12:10;;;;;;;;;;;;;;;;;;5026948;28;19936;-59
2022/11/20 05:14:35;;;;;;;;;;;;;;;;;;5022072;28;19928;-58
2022/11/20 05:17:00;;;;;;;;;;;;;;;;;;5025555;28;19924;-58
2022/11/20 05:19:25;;;;;;;;;;;;;;;;;;5025770;28;19925;-59
2022/11/20 05:21:51;;;;;;;;;;;;;;;;;;5029135;28;20011;-58
2022/11/20 05:24:16;;;;;;;;;;;;;;;;;;5027859;28;20250;-59
2022/11/20 05:26:41;;;;;;;;;;;;;;;;;;5024446;28;19925;-59
2022/11/20 05:29:06;;;;;;;;;;;;;;;;;;5026108;28;19917;-59
2022/11/20 05:31:31;;;;;;;;;;;;;;;;;;5025062;28;19932;-59
2022/11/20 05:33:57;;;;;;;;;;;;;;;;;;5024598;28;19996;-58
2022/11/20 05:36:22;;;;;;;;;;;;;;;;;;5056144;28;19966;-59
2022/11/20 05:38:47;;;;;;;;;;;;;;;;;;5025288;28;20291;-58
2022/11/20 05:41:12;;;;;;;;;;;;;;;;;;5023429;28;20784;-59
2022/11/20 05:43:37;;;;;;;;;;;;;;;;;;5026022;28;19917;-59
2022/11/20 05:46:03;;;;;;;;;;;;;;;;;;5026034;28;19967;-58
2022/11/20 05:48:28;;;;;;;;;;;;;;;;;;5029259;28;19940;-59
2022/11/20 05:50:53;;;;;;;;;;;;;;;;;;5024968;28;20449;-57
2022/11/20 05:53:18;;;;;;;;;;;;;;;;;;5022163;28;19917;-59
2022/11/20 05:55:43;;;;;;;;;;;;;;;;;;5024659;28;20453;-59
2022/11/20 05:58:09;;;;;;;;;;;;;;;;;;5057575;28;19964;-59
2022/11/20 06:00:34;;;;;;;;;;;;;;;;;;5026339;28;19925;-58
2022/11/20 06:02:59;;;;;;;;;;;;;;;;;;5026415;28;20818;-59
2022/11/20 06:05:24;;;;;;;;;;;;;;;;;;5025973;28;20322;-59
2022/11/20 06:07:49;;;;;;;;;;;;;;;;;;5025443;28;19979;-59
2022/11/20 06:10:14;;;;;;;;;;;;;;;;;;5024868;28;19920;-59
2022/11/20 06:12:40;;;;;;;;;;;;;;;;;;5033584;28;20492;-59
2022/11/20 06:15:05;;;;;;;;;;;;;;;;;;5025145;28;19917;-59
2022/11/20 06:17:30;;;;;;;;;;;;;;;;;;5028480;28;19917;-59
2022/11/20 06:19:55;;;;;;;;;;;;;;;;;;5029053;28;20344;-59
2022/11/20 06:22:20;;;;;;;;;;;;;;;;;;5026791;28;19924;-58
2022/11/20 06:24:46;;;;;;;;;;;;;;;;;;5028971;28;19917;-58
2022/11/20 06:27:11;;;;;;;;;;;;;;;;;;5027087;28;20399;-59
2022/11/20 06:29:36;;;;;;;;;;;;;;;;;;5027813;28;20457;-59
2022/11/20 06:32:01;;;;;;;;;;;;;;;;;;5031170;28;19950;-59
2022/11/20 06:34:26;;;;;;;;;;;;;;;;;;5027707;28;19917;-58
2022/11/20 06:36:52;;;;;;;;;;;;;;;;;;5029198;28;19913;-59
2022/11/20 06:39:17;;;;;;;;;;;;;;;;;;5027603;28;19971;-58
2022/11/20 06:41:42;;;;;;;;;;;;;;;;;;5028964;28;19921;-59
2022/11/20 06:44:07;;;;;;;;;;;;;;;;;;5029216;28;19921;-59
2022/11/20 06:46:32;;;;;;;;;;;;;;;;;;5027835;28;19928;-59
2022/11/20 06:48:58;;;;;;;;;;;;;;;;;;5029240;28;19983;-58
2022/11/20 06:51:23;;;;;;;;;;;;;;;;;;5026105;28;20039;-58
2022/11/20 06:53:48;;;;;;;;;;;;;;;;;;5027999;28;19921;-59
2022/11/20 06:56:13;;;;;;;;;;;;;;;;;;5027746;28;20286;-58
2022/11/20 06:58:39;;;;;;;;;;;;;;;;;;5026272;28;19921;-58
2022/11/20 07:01:04;;;;;;;;;;;;;;;;;;5029976;28;19917;-59
2022/11/20 07:03:29;;;;;;;;;;;;;;;;;;5029662;28;19917;-59
2022/11/20 07:05:55;;;;;;;;;;;;;;;;;;5027429;28;19963;-58
2022/11/20 07:08:20;;;;;;;;;;;;;;;;;;5031300;28;19928;-58
2022/11/20 07:10:45;;;;;;;;;;;;;;;;;;5026529;28;20691;-59
2022/11/20 07:13:10;;;;;;;;;;;;;;;;;;5029327;28;19978;-59
2022/11/20 07:15:35;;;;;;;;;;;;;;;;;;5028559;28;19917;-59
2022/11/20 07:18:01;;;;;;;;;;;;;;;;;;5059705;28;19912;-59
2022/11/20 07:20:26;;;;;;;;;;;;;;;;;;5059926;28;20413;-59
2022/11/20 07:22:51;;;;;;;;;;;;;;;;;;5028589;28;19925;-59
2022/11/20 07:25:16;;;;;;;;;;;;;;;;;;5027764;28;19917;-59
2022/11/20 07:27:41;;;;;;;;;;;;;;;;;;5028904;28;19924;-57
2022/11/20 07:30:07;;;;;;;;;;;;;;;;;;5027315;28;20013;-59
2022/11/20 07:32:32;;;;;;;;;;;;;;;;;;5027116;28;19917;-59
2022/11/20 07:34:57;;;;;;;;;;;;;;;;;;5027473;28;19924;-58
2022/11/20 07:37:22;;;;;;;;;;;;;;;;;;5024701;28;19941;-60
2022/11/20 07:39:47;;;;;;;;;;;;;;;;;;5028224;28;19944;-59
2022/11/20 07:42:13;;;;;;;;;;;;;;;;;;5028758;28;20282;-59
2022/11/20 07:44:38;;;;;;;;;;;;;;;;;;5026669;28;20008;-59
2022/11/20 07:47:03;;;;;;;;;;;;;;;;;;5027647;28;19917;-59
2022/11/20 07:49:28;;;;;;;;;;;;;;;;;;5025679;28;19921;-59
2022/11/20 07:51:53;;;;;;;;;;;;;;;;;;5056177;28;20266;-59
2022/11/20 07:54:19;;;;;;;;;;;;;;;;;;5027386;28;19917;-59
2022/11/20 07:56:44;;;;;;;;;;;;;;;;;;5033582;28;20285;-58
2022/11/20 07:59:11;;;;;;;;;;;;;;;;;;5024946;28;20420;-58
2022/11/20 08:01:37;;;;;;;;;;;;;;;;;;5025441;28;20019;-54
2022/11/20 08:04:02;;;;;;;;;;;;;;;;;;5026189;28;20365;-56
2022/11/20 08:06:27;;;;;;;;;;;;;;;;;;5024271;28;20284;-59
2022/11/20 08:08:52;;;;;;;;;;;;;;;;;;5035992;28;19920;-57
2022/11/20 08:14:13;;;;;;;;;;;;;;;;;;5026209;28;19994;-55
2022/11/20 08:16:38;;;;;;;;;;;;;;;;;;5026237;28;20321;-55
2022/11/20 08:19:05;;;;;;;;;;;;;;;;;;5025771;28;20305;-55
2022/11/20 08:21:31;;;;;;;;;;;;;;;;;;5026303;28;19921;-56
2022/11/20 08:23:56;;;;;;;;;;;;;;;;;;5027223;28;20369;-57
2022/11/20 08:26:21;;;;;;;;;;;;;;;;;;5024694;28;19923;-58
2022/11/20 08:28:47;;;;;;;;;;;;;;;;;;5025769;28;19921;-57
2022/11/20 08:31:12;;;;;;;;;;;;;;;;;;5025422;28;19921;-55
2022/11/20 08:33:37;;;;;;;;;;;;;;;;;;5025107;28;19917;-54
2022/11/20 08:36:02;;;;;;;;;;;;;;;;;;5026240;28;19916;-56
2022/11/20 08:38:27;;;;;;;;;;;;;;;;;;5021068;28;20019;-57
2022/11/20 08:43:37;;;;;;;;;;;;;;;;;;5025224;28;20359;-56
2022/11/20 08:46:02;;;;;;;;;;;;;;;;;;5024939;28;19925;-56
2022/11/20 08:48:27;;;;;;;;;;;;;;;;;;5025904;28;19917;-54
2022/11/20 08:50:52;;;;;;;;;;;;;;;;;;5032416;28;20335;-54
2022/11/20 08:53:17;;;;;;;;;;;;;;;;;;5027033;28;20409;-57
2022/11/20 08:55:43;;;;;;;;;;;;;;;;;;5026362;28;20460;-53
2022/11/20 08:58:08;;;;;;;;;;;;;;;;;;5026652;28;19917;-53
2022/11/20 09:00:33;;;;;;;;;;;;;;;;;;5025804;28;20024;-55
2022/11/20 09:03:00;;;;;;;;;;;;;;;;;;5025339;28;19936;-53
2022/11/20 09:05:25;;;;;;;;;;;;;;;;;;5024725;28;19917;-54
2022/11/20 09:07:50;;;;;;;;;;;;;;;;;;5026112;28;19928;-54
2022/11/20 09:10:16;;;;;;;;;;;;;;;;;;5025510;28;19968;-53
2022/11/20 09:12:41;;;;;;;;;;;;;;;;;;5027181;28;20340;-54
2022/11/20 09:15:06;;;;;;;;;;;;;;;;;;5026882;28;19917;-53
2022/11/20 09:17:31;;;;;;;;;;;;;;;;;;5027544;28;19992;-53
2022/11/20 09:19:56;;;;;;;;;;;;;;;;;;5026723;28;20019;-56
2022/11/20 09:22:21;;;;;;;;;;;;;;;;;;5025111;28;20576;-55
2022/11/20 09:24:47;;;;;;;;;;;;;;;;;;5023266;28;20429;-54
2022/11/20 09:27:12;;;;;;;;;;;;;;;;;;5022502;28;19921;-55
2022/11/20 09:29:37;;;;;;;;;;;;;;;;;;5023807;28;19919;-55
2022/11/20 09:32:02;;;;;;;;;;;;;;;;;;5023671;28;19924;-54
2022/11/20 09:34:28;;;;;;;;;;;;;;;;;;5005863;28;19921;-55
2022/11/20 09:36:53;;;;;;;;;;;;;;;;;;5026281;28;20208;-54
2022/11/20 09:39:18;;;;;;;;;;;;;;;;;;5026192;28;19979;-56
2022/11/20 09:41:43;;;;;;;;;;;;;;;;;;5027374;28;20321;-57
2022/11/20 09:44:08;;;;;;;;;;;;;;;;;;5026580;28;19917;-56
2022/11/20 09:46:34;;;;;;;;;;;;;;;;;;5026310;28;19988;-55
2022/11/20 09:48:59;;;;;;;;;;;;;;;;;;5028423;28;19995;-59
2022/11/20 09:51:25;;;;;;;;;;;;;;;;;;5028407;28;19917;-55
2022/11/20 09:53:50;;;;;;;;;;;;;;;;;;5027409;28;19923;-56
2022/11/20 09:56:15;;;;;;;;;;;;;;;;;;5022264;28;20004;-55
2022/11/20 09:58:41;;;;;;;;;;;;;;;;;;5026700;28;19931;-55
2022/11/20 10:01:06;;;;;;;;;;;;;;;;;;5021445;28;20001;-55
2022/11/20 10:03:32;;;;;;;;;;;;;;;;;;5021450;28;19964;-57
2022/11/20 10:05:57;;;;;;;;;;;;;;;;;;5023924;28;19995;-56
2022/11/20 10:08:22;;;;;;;;;;;;;;;;;;5021844;28;20393;-57
2022/11/20 10:10:47;;;;;;;;;;;;;;;;;;5021173;28;19921;-55
2022/11/20 10:13:13;;;;;;;;;;;;;;;;;;5027288;28;20322;-57
2022/11/20 10:15:38;;;;;;;;;;;;;;;;;;5026390;28;19935;-57
2022/11/20 10:18:03;;;;;;;;;;;;;;;;;;5027566;28;19917;-59
2022/11/20 10:20:28;;;;;;;;;;;;;;;;;;5025227;28;19929;-56
2022/11/20 10:22:53;;;;;;;;;;;;;;;;;;5027696;28;20094;-58
2022/11/20 10:25:19;;;;;;;;;;;;;;;;;;5051551;28;19924;-58
2022/11/20 10:27:44;;;;;;;;;;;;;;;;;;5026456;28;20012;-59
2022/11/20 10:30:09;;;;;;;;;;;;;;;;;;5024988;28;20286;-58
2022/11/20 10:32:34;;;;;;;;;;;;;;;;;;5026025;28;19917;-59
2022/11/20 10:34:59;;;;;;;;;;;;;;;;;;5026120;28;20638;-59
2022/11/20 10:37:25;;;;;;;;;;;;;;;;;;5026196;28;19921;-57
2022/11/20 10:39:50;;;;;;;;;;;;;;;;;;5023158;28;20020;-58
2022/11/20 10:42:15;;;;;;;;;;;;;;;;;;5027188;28;19913;-56
2022/11/20 10:47:24;;;;;;;;;;;;;;;;;;5023123;28;19913;-58
2022/11/20 10:49:49;;;;;;;;;;;;;;;;;;5026451;28;19931;-54
2022/11/20 10:52:14;;;;;;;;;;;;;;;;;;5021821;28;20378;-54
2022/11/20 10:54:39;;;;;;;;;;;;;;;;;;5025641;28;19917;-57
2022/11/20 10:57:05;;;;;;;;;;;;;;;;;;5025152;28;19921;-57
2022/11/20 10:59:30;;;;;;;;;;;;;;;;;;5025509;28;20055;-54
2022/11/20 11:01:55;;;;;;;;;;;;;;;;;;5048847;28;19917;-58
2022/11/20 11:04:20;;;;;;;;;;;;;;;;;;5020459;28;19967;-60
2022/11/20 11:06:45;;;;;;;;;;;;;;;;;;5020050;28;19932;-55
2022/11/20 11:09:11;;;;;;;;;;;;;;;;;;5018000;28;20058;-57
2022/11/20 11:11:36;;;;;;;;;;;;;;;;;;5031225;28;20366;-56
2022/11/20 11:14:01;;;;;;;;;;;;;;;;;;5024584;28;20382;-59
2022/11/20 11:16:26;;;;;;;;;;;;;;;;;;5025280;28;19921;-55
2022/11/20 11:18:51;;;;;;;;;;;;;;;;;;5028531;28;19996;-57
2022/11/20 11:21:16;;;;;;;;;;;;;;;;;;5024074;28;19924;-56
2022/11/20 11:23:42;;;;;;;;;;;;;;;;;;5028721;28;19921;-57
2022/11/20 11:26:07;;;;;;;;;;;;;;;;;;5023440;28;19963;-56
2022/11/20 11:28:32;;;;;;;;;;;;;;;;;;5025957;28;19969;-53
2022/11/20 11:30:57;;;;;;;;;;;;;;;;;;5032483;28;20396;-56
2022/11/20 11:33:23;;;;;;;;;;;;;;;;;;5022231;28;19917;-57
2022/11/20 11:35:48;;;;;;;;;;;;;;;;;;5025895;28;19916;-56
2022/11/20 11:38:13;;;;;;;;;;;;;;;;;;5019153;28;20450;-57
2022/11/20 11:40:38;;;;;;;;;;;;;;;;;;5023132;28;19921;-54
2022/11/20 11:43:04;;;;;;;;;;;;;;;;;;5030063;28;19916;-59
2022/11/20 11:45:29;;;;;;;;;;;;;;;;;;5022118;28;19924;-57
2022/11/20 11:47:54;;;;;;;;;;;;;;;;;;5033367;28;19916;-59
2022/11/20 11:50:19;;;;;;;;;;;;;;;;;;5023464;28;19923;-55
2022/11/20 11:52:45;;;;;;;;;;;;;;;;;;5025523;28;19964;-59
2022/11/20 11:55:10;;;;;;;;;;;;;;;;;;5048640;28;19917;-63
2022/11/20 11:57:35;;;;;;;;;;;;;;;;;;5026741;28;20007;-59
2022/11/20 12:00:01;;;;;;;;;;;;;;;;;;5032745;28;19929;-58
2022/11/20 12:02:26;;;;;;;;;;;;;;;;;;5026657;28;19923;-58
2022/11/20 12:04:51;;;;;;;;;;;;;;;;;;5042956;28;20553;-58
2022/11/20 12:07:16;;;;;;;;;;;;;;;;;;5027715;28;19924;-59
2022/11/20 12:09:42;;;;;;;;;;;;;;;;;;5022821;28;19981;-58
2022/11/20 12:12:07;;;;;;;;;;;;;;;;;;5030699;28;19921;-58
2022/11/20 12:14:32;;;;;;;;;;;;;;;;;;5020590;28;20114;-58
2022/11/20 12:16:57;;;;;;;;;;;;;;;;;;5024146;28;19913;-59
2022/11/20 12:19:22;;;;;;;;;;;;;;;;;;5029257;28;19925;-58
2022/11/20 12:21:47;;;;;;;;;;;;;;;;;;5023993;28;19924;-58
2022/11/20 12:24:13;;;;;;;;;;;;;;;;;;5029711;28;19928;-58
2022/11/20 12:26:38;;;;;;;;;;;;;;;;;;5022261;28;20437;-58
2022/11/20 12:29:03;;;;;;;;;;;;;;;;;;5024388;28;19917;-58
2022/11/20 12:31:28;;;;;;;;;;;;;;;;;;5030634;28;19917;-59
2022/11/20 12:33:53;;;;;;;;;;;;;;;;;;5022419;28;19928;-58
2022/11/20 12:36:19;;;;;;;;;;;;;;;;;;5033753;28;20012;-57
2022/11/20 12:38:44;;;;;;;;;;;;;;;;;;5025642;28;20012;-58
2022/11/20 12:41:09;;;;;;;;;;;;;;;;;;5025571;28;20674;-58
2022/11/20 12:46:18;;;;;;;;;;;;;;;;;;5026304;28;19944;-58
2022/11/20 12:48:44;;;;;;;;;;;;;;;;;;5029936;28;19924;-57
2022/11/20 12:51:09;;;;;;;;;;;;;;;;;;5025610;28;19971;-58
2022/11/20 12:53:34;;;;;;;;;;;;;;;;;;5026197;28;19963;-58
2022/11/20 12:55:59;;;;;;;;;;;;;;;;;;5031627;28;19967;-58
2022/11/20 12:58:24;;;;;;;;;;;;;;;;;;5024936;28;19968;-58
2022/11/20 13:00:50;;;;;;;;;;;;;;;;;;5027599;28;19929;-59
2022/11/20 13:03:16;;;;;;;;;;;;;;;;;;5022827;28;19990;-59
2022/11/20 13:05:41;;;;;;;;;;;;;;;;;;5015017;28;19938;-58
2022/11/20 13:08:06;;;;;;;;;;;;;;;;;;5027145;28;19916;-59
2022/11/20 13:10:32;;;;;;;;;;;;;;;;;;5021962;28;19923;-58
2022/11/20 13:12:57;;;;;;;;;;;;;;;;;;5020245;28;19925;-58
2022/11/20 13:15:22;;;;;;;;;;;;;;;;;;5017019;28;19925;-59
2022/11/20 13:17:48;;;;;;;;;;;;;;;;;;5020001;28;20638;-59
2022/11/20 13:20:13;;;;;;;;;;;;;;;;;;5028442;28;19952;-58
2022/11/20 13:22:39;;;;;;;;;;;;;;;;;;5024615;28;19928;-58
2022/11/20 13:25:04;;;;;;;;;;;;;;;;;;5033630;28;20012;-59
2022/11/20 13:27:30;;;;;;;;;;;;;;;;;;5029352;28;19917;-58
2022/11/20 13:29:56;;;;;;;;;;;;;;;;;;5029210;28;20015;-59
2022/11/20 13:32:21;;;;;;;;;;;;;;;;;;5034394;28;19927;-58
2022/11/20 13:34:46;;;;;;;;;;;;;;;;;;5028524;28;20004;-58
2022/11/20 13:37:11;;;;;;;;;;;;;;;;;;5034809;28;19924;-59
2022/11/20 13:39:36;;;;;;;;;;;;;;;;;;5063639;28;20644;-59
2022/11/20 13:42:02;;;;;;;;;;;;;;;;;;5030368;28;19924;-60
2022/11/20 13:44:27;;;;;;;;;;;;;;;;;;5030904;28;19917;-59
2022/11/20 13:46:52;;;;;;;;;;;;;;;;;;5019527;28;20403;-58
2022/11/20 13:49:17;;;;;;;;;;;;;;;;;;5031764;28;20274;-58
2022/11/20 13:51:43;;;;;;;;;;;;;;;;;;5031308;28;20016;-58
2022/11/20 13:54:08;;;;;;;;;;;;;;;;;;5027320;28;20005;-59
2022/11/20 13:56:33;;;;;;;;;;;;;;;;;;5034017;28;19912;-58
2022/11/20 13:58:59;;;;;;;;;;;;;;;;;;5026472;28;19921;-59
2022/11/20 14:01:24;;;;;;;;;;;;;;;;;;5034041;28;20032;-59
2022/11/20 14:03:49;;;;;;;;;;;;;;;;;;5028785;28;19921;-59
2022/11/20 14:06:14;;;;;;;;;;;;;;;;;;5058468;28;19967;-59
2022/11/20 14:08:40;;;;;;;;;;;;;;;;;;5033664;28;19917;-60
2022/11/20 14:11:05;;;;;;;;;;;;;;;;;;5029482;28;20373;-59
2022/11/20 14:13:30;;;;;;;;;;;;;;;;;;5034459;28;19920;-59
2022/11/20 14:15:55;;;;;;;;;;;;;;;;;;5027642;28;19916;-60
2022/11/20 14:18:21;;;;;;;;;;;;;;;;;;5028973;28;19916;-59
2022/11/20 14:20:46;;;;;;;;;;;;;;;;;;5034790;28;20921;-58
2022/11/20 14:23:12;;;;;;;;;;;;;;;;;;5028447;28;19921;-58
2022/11/20 14:25:37;;;;;;;;;;;;;;;;;;5035006;28;20078;-58
2022/11/20 14:28:02;;;;;;;;;;;;;;;;;;5025013;28;20392;-59
2022/11/20 14:30:27;;;;;;;;;;;;;;;;;;5025591;28;19917;-58
2022/11/20 14:32:53;;;;;;;;;;;;;;;;;;5034280;28;20356;-58
2022/11/20 14:35:18;;;;;;;;;;;;;;;;;;5026644;28;19967;-58
2022/11/20 14:37:44;;;;;;;;;;;;;;;;;;5031974;28;20373;-58
2022/11/20 14:40:09;;;;;;;;;;;;;;;;;;5027302;28;20284;-58
2022/11/20 14:42:34;;;;;;;;;;;;;;;;;;5028476;28;20423;-58
2022/11/20 14:44:59;;;;;;;;;;;;;;;;;;5015927;28;19936;-59
2022/11/20 14:47:25;;;;;;;;;;;;;;;;;;5023110;28;20396;-59
2022/11/20 14:49:50;;;;;;;;;;;;;;;;;;5028226;28;19921;-58
2022/11/20 14:52:15;;;;;;;;;;;;;;;;;;5023381;28;19917;-59
2022/11/20 14:54:40;;;;;;;;;;;;;;;;;;5028640;28;19956;-59
2022/11/20 14:57:06;;;;;;;;;;;;;;;;;;5031360;28;20285;-58
2022/11/20 14:59:31;;;;;;;;;;;;;;;;;;5027620;28;19931;-59
2022/11/20 15:01:56;;;;;;;;;;;;;;;;;;5030896;28;19996;-58
2022/11/20 15:04:21;;;;;;;;;;;;;;;;;;5028356;28;19921;-58
2022/11/20 15:06:46;;;;;;;;;;;;;;;;;;5029266;28;19917;-59
2022/11/20 15:09:11;;;;;;;;;;;;;;;;;;5025331;28;19943;-59
2022/11/20 15:11:37;;;;;;;;;;;;;;;;;;5030750;28;20282;-59
2022/11/20 15:14:02;;;;;;;;;;;;;;;;;;5028632;28;19921;-59
2022/11/20 15:16:27;;;;;;;;;;;;;;;;;;5028810;28;19923;-58
2022/11/20 15:18:53;;;;;;;;;;;;;;;;;;5027881;28;20032;-58
2022/11/20 15:21:18;;;;;;;;;;;;;;;;;;5029541;28;20503;-58
2022/11/20 15:23:43;;;;;;;;;;;;;;;;;;5028830;28;20401;-59
2022/11/20 15:26:08;;;;;;;;;;;;;;;;;;5027718;28;19917;-58
2022/11/20 15:28:33;;;;;;;;;;;;;;;;;;5028081;28;19922;-59
2022/11/20 15:30:59;;;;;;;;;;;;;;;;;;5028360;28;19921;-59
2022/11/20 15:33:24;;;;;;;;;;;;;;;;;;5028934;28;19917;-59
2022/11/20 15:35:49;;;;;;;;;;;;;;;;;;5026843;28;19924;-58
2022/11/20 15:38:14;;;;;;;;;;;;;;;;;;5026893;28;20369;-59
2022/11/20 15:40:39;;;;;;;;;;;;;;;;;;5025424;28;19928;-59
2022/11/20 15:43:07;;;;;;;;;;;;;;;;;;5027149;28;19917;-58
2022/11/20 15:45:32;;;;;;;;;;;;;;;;;;5027193;28;20385;-59
2022/11/20 15:47:58;;;;;;;;;;;;;;;;;;5022649;28;19921;-59
2022/11/20 15:50:23;;;;;;;;;;;;;;;;;;5027426;28;19995;-59
2022/11/20 15:52:48;;;;;;;;;;;;;;;;;;5058529;28;20605;-59
2022/11/20 15:55:13;;;;;;;;;;;;;;;;;;5029318;28;19964;-59
2022/11/20 15:57:38;;;;;;;;;;;;;;;;;;5028269;28;19921;-60
2022/11/20 16:00:04;;;;;;;;;;;;;;;;;;5026230;28;20301;-59
2022/11/20 16:02:36;;;;;;;;;;;;;;;;;;5027567;28;19917;-59
2022/11/20 16:05:01;;;;;;;;;;;;;;;;;;5027018;28;20352;-59
2022/11/20 16:07:26;;;;;;;;;;;;;;;;;;5025683;28;19960;-59
2022/11/20 16:09:51;;;;;;;;;;;;;;;;;;5029686;28;19943;-59
2022/11/20 16:15:44;;;;;;;;;;;;;;;;;;5028054;28;19971;-59
2022/11/20 16:17:46;;;;;;;;;;;;;;;;;;5027661;28;19917;-59
2022/11/20 16:20:11;;;;;;;;;;;;;;;;;;5027714;28;19933;-59
2022/11/20 16:22:36;;;;;;;;;;;;;;;;;;5026230;28;19947;-59
2022/11/20 16:25:01;;;;;;;;;;;;;;;;;;5027332;28;20182;-59
2022/11/20 16:27:26;;;;;;;;;;;;;;;;;;5027454;28;19913;-59
2022/11/20 16:29:51;;;;;;;;;;;;;;;;;;5024666;28;20443;-60
2022/11/20 16:32:17;;;;;;;;;;;;;;;;;;5026748;28;19940;-59
2022/11/20 16:34:42;;;;;;;;;;;;;;;;;;5025096;28;20067;-59
2022/11/20 16:37:07;;;;;;;;;;;;;;;;;;5027198;28;20386;-59
2022/11/20 16:39:32;;;;;;;;;;;;;;;;;;5025563;28;19929;-60
2022/11/20 16:41:57;;;;;;;;;;;;;;;;;;5026026;28;19924;-59
2022/11/20 16:44:23;;;;;;;;;;;;;;;;;;5028355;28;19984;-59
2022/11/20 16:46:48;;;;;;;;;;;;;;;;;;5027037;28;19917;-59
2022/11/20 16:49:13;;;;;;;;;;;;;;;;;;5024906;28;19917;-59
2022/11/20 16:51:38;;;;;;;;;;;;;;;;;;5024898;28;20049;-59